createdAt,value
2022-08-27T00:01:22.951Z,21.09
2022-08-27T00:06:25.702Z,20.98
2022-08-27T00:11:28.115Z,20.98
2022-08-27T00:16:29.856Z,20.86
2022-08-27T00:21:33.268Z,20.84
2022-08-27T00:26:37.332Z,20.83
2022-08-27T00:31:40.835Z,20.60
2022-08-27T00:36:42.735Z,20.81
2022-08-27T00:41:44.405Z,20.92
2022-08-27T00:46:50.709Z,20.63
2022-08-27T00:51:57.484Z,20.51
2022-08-27T00:57:00.485Z,20.57
2022-08-27T01:02:20.114Z,20.67
2022-08-27T01:07:23.729Z,20.57
2022-08-27T01:12:26.310Z,20.34
2022-08-27T01:17:28.189Z,20.56
2022-08-27T01:23:06.649Z,20.48
2022-08-27T01:28:10.065Z,20.79
2022-08-27T01:33:15.611Z,20.72
2022-08-27T01:38:30.442Z,20.57
2022-08-27T01:43:32.882Z,20.60
2022-08-27T01:48:34.826Z,20.65
2022-08-27T01:53:36.802Z,20.60
2022-08-27T01:58:39.154Z,20.71
2022-08-27T02:03:40.977Z,20.45
2022-08-27T02:08:42.773Z,20.49
2022-08-27T02:13:44.435Z,20.58
2022-08-27T02:18:47.341Z,20.67
2022-08-27T02:23:48.989Z,20.70
2022-08-27T02:28:50.685Z,20.70
2022-08-27T02:33:52.674Z,20.85
2022-08-27T02:38:54.431Z,20.82
2022-08-27T02:43:56.073Z,20.68
2022-08-27T02:48:57.822Z,20.80
2022-08-27T02:54:00.874Z,20.73
2022-08-27T02:59:04.251Z,20.84
2022-08-27T03:04:06.125Z,20.67
2022-08-27T03:09:07.895Z,20.63
2022-08-27T03:14:09.598Z,20.87
2022-08-27T03:19:11.606Z,20.78
2022-08-27T03:24:14.764Z,20.73
2022-08-27T03:29:16.564Z,20.82
2022-08-27T03:34:20.020Z,20.83
2022-08-27T03:39:21.741Z,20.97
2022-08-27T03:44:24.393Z,20.71
2022-08-27T03:49:26.178Z,21.00
2022-08-27T03:54:27.952Z,21.02
2022-08-27T03:59:29.776Z,21.05
2022-08-27T04:04:31.491Z,20.78
2022-08-27T04:09:33.095Z,20.65
2022-08-27T04:14:34.766Z,20.56
2022-08-27T04:19:36.517Z,20.36
2022-08-27T04:24:38.684Z,20.33
2022-08-27T04:29:40.850Z,20.41
2022-08-27T04:34:42.733Z,20.70
2022-08-27T04:39:48.596Z,20.69
2022-08-27T04:44:53.479Z,20.68
2022-08-27T04:49:55.135Z,20.73
2022-08-27T04:54:59.036Z,20.71
2022-08-27T05:00:00.704Z,20.68
2022-08-27T05:05:02.393Z,20.23
2022-08-27T05:10:04.272Z,20.10
2022-08-27T05:15:06.518Z,20.26
2022-08-27T05:20:09.592Z,20.18
2022-08-27T05:25:11.360Z,20.21
2022-08-27T05:30:13.264Z,20.40
2022-08-27T05:35:15.766Z,20.39
2022-08-27T05:40:17.581Z,20.31
2022-08-27T05:45:19.585Z,20.35
2022-08-27T05:50:23.670Z,20.34
2022-08-27T05:55:25.467Z,20.20
2022-08-27T06:00:45.859Z,20.21
2022-08-27T06:05:48.190Z,20.43
2022-08-27T06:10:50.207Z,20.36
2022-08-27T06:16:01.181Z,20.21
2022-08-27T06:21:02.988Z,20.47
2022-08-27T06:26:08.897Z,20.49
2022-08-27T06:31:14.163Z,20.64
2022-08-27T06:36:19.767Z,20.31
2022-08-27T06:41:24.736Z,20.59
2022-08-27T06:46:29.351Z,20.19
2022-08-27T06:51:34.163Z,20.27
2022-08-27T06:56:36.335Z,20.23
2022-08-27T07:01:41.801Z,20.40
2022-08-27T07:06:43.780Z,20.47
2022-08-27T07:11:45.411Z,20.09
2022-08-27T07:16:48.296Z,20.41
2022-08-27T07:21:52.218Z,20.23
2022-08-27T07:26:54.487Z,19.95
2022-08-27T07:31:56.169Z,20.10
2022-08-27T07:36:57.952Z,20.19
2022-08-27T07:42:18.216Z,20.08
2022-08-27T07:47:19.979Z,20.03
2022-08-27T07:52:25.900Z,20.15
2022-08-27T07:57:28.196Z,20.18
2022-08-27T08:02:30.977Z,20.14
2022-08-27T08:07:34.377Z,19.79
2022-08-27T08:12:40.197Z,20.20
2022-08-27T08:17:41.840Z,20.25
2022-08-27T08:22:43.536Z,20.13
2022-08-27T08:27:45.262Z,20.26
2022-08-27T08:32:46.979Z,20.16
2022-08-27T08:37:48.658Z,20.21
2022-08-27T08:42:54.954Z,20.29
2022-08-27T08:48:05.078Z,20.46
2022-08-27T08:53:13.244Z,20.57
2022-08-27T08:58:44.934Z,20.80
2022-08-27T09:03:59.985Z,20.93
2022-08-27T09:09:29.535Z,20.81
2022-08-27T09:14:41.629Z,20.85
2022-08-27T09:19:47.912Z,21.01
2022-08-27T09:25:32.740Z,20.98
2022-08-27T09:30:43.796Z,21.02
2022-08-27T09:35:46.931Z,21.19
2022-08-27T09:40:51.251Z,20.96
2022-08-27T09:45:56.148Z,21.02
2022-08-27T09:51:11.085Z,20.75
2022-08-27T09:56:33.137Z,20.70
2022-08-27T10:01:57.796Z,20.62
2022-08-27T10:06:59.707Z,20.83
2022-08-27T10:12:17.810Z,20.87
2022-08-27T10:17:53.651Z,21.04
2022-08-27T10:23:05.608Z,21.28
2022-08-27T10:28:34.467Z,21.51
2022-08-27T10:33:54.490Z,21.52
2022-08-27T10:39:15.232Z,21.48
2022-08-27T10:44:46.500Z,21.75
2022-08-27T10:50:10.544Z,21.93
2022-08-27T10:55:24.125Z,21.84
2022-08-27T11:00:36.552Z,21.89
2022-08-27T11:05:45.324Z,22.11
2022-08-27T11:11:26.004Z,21.74
2022-08-27T11:16:31.614Z,21.70
2022-08-27T11:21:43.690Z,21.79
2022-08-27T11:26:46.908Z,21.62
2022-08-27T11:31:53.581Z,21.83
2022-08-27T11:37:21.774Z,22.19
2022-08-27T11:42:48.264Z,21.79
2022-08-27T11:47:56.051Z,22.72
2022-08-27T11:53:06.773Z,22.56
2022-08-27T11:58:17.757Z,23.40
2022-08-27T12:03:19.434Z,23.24
2022-08-27T12:08:24.250Z,23.25
2022-08-27T12:13:32.665Z,22.91
2022-08-27T12:18:38.904Z,23.39
2022-08-27T12:23:55.765Z,23.82
2022-08-27T12:29:34.326Z,23.99
2022-08-27T12:35:03.289Z,24.04
2022-08-27T12:40:39.443Z,23.35
2022-08-27T12:46:07.860Z,22.80
2022-08-27T12:51:18.860Z,23.35
2022-08-27T12:56:30.098Z,22.68
2022-08-27T13:01:43.132Z,22.60
2022-08-27T13:06:45.939Z,22.77
2022-08-27T13:11:55.902Z,22.25
2022-08-27T13:17:14.816Z,22.22
2022-08-27T13:22:49.898Z,22.50
2022-08-27T13:27:56.228Z,21.96
2022-08-27T13:32:59.868Z,21.82
2022-08-27T13:38:03.125Z,21.61
2022-08-27T13:43:11.875Z,21.55
2022-08-27T13:48:17.256Z,22.13
2022-08-27T13:53:42.804Z,22.19
2022-08-27T13:58:44.501Z,22.69
2022-08-27T14:03:50.023Z,22.82
2022-08-27T14:08:51.873Z,22.99
2022-08-27T14:13:56.980Z,23.31
2022-08-27T14:19:23.785Z,23.11
2022-08-27T14:24:26.383Z,22.75
2022-08-27T14:29:28.105Z,22.81
2022-08-27T14:34:30.569Z,22.12
2022-08-27T14:39:32.396Z,22.22
2022-08-27T14:44:34.143Z,21.69
2022-08-27T14:49:39.405Z,21.64
2022-08-27T14:54:42.424Z,21.19
2022-08-27T14:59:44.068Z,21.10
2022-08-27T15:04:47.955Z,20.95
2022-08-27T15:09:49.846Z,20.70
2022-08-27T15:14:51.519Z,20.85
2022-08-27T15:19:53.145Z,20.69
2022-08-27T15:24:56.870Z,20.98
2022-08-27T15:30:01.828Z,21.02
2022-08-27T15:35:08.248Z,21.01
2022-08-27T15:40:11.811Z,21.20
2022-08-27T15:45:14.542Z,21.59
2022-08-27T15:50:17.443Z,21.71
2022-08-27T15:55:22.990Z,21.67
2022-08-27T16:00:24.926Z,21.69
2022-08-27T16:05:30.573Z,21.67
2022-08-27T16:10:32.258Z,21.59
2022-08-27T16:15:39.398Z,21.94
2022-08-27T16:20:42.040Z,21.46
2022-08-27T16:25:43.658Z,21.57
2022-08-27T16:30:45.493Z,21.48
2022-08-27T16:35:47.343Z,21.52
2022-08-27T16:40:52.966Z,21.15
2022-08-27T16:45:58.095Z,21.09
2022-08-27T16:51:00.214Z,21.02
2022-08-27T16:56:02.411Z,20.99
2022-08-27T17:01:07.541Z,21.15
2022-08-27T17:06:10.657Z,21.26
2022-08-27T17:11:21.910Z,21.02
2022-08-27T17:16:25.645Z,20.90
2022-08-27T17:21:32.055Z,20.77
2022-08-27T17:26:34.132Z,20.65
2022-08-27T17:31:38.215Z,20.69
2022-08-27T17:36:39.859Z,20.67
2022-08-27T17:41:49.100Z,20.65
2022-08-27T17:46:52.451Z,20.72
2022-08-27T17:51:57.832Z,20.75
2022-08-27T17:57:01.621Z,20.86
2022-08-27T18:02:03.460Z,20.57
2022-08-27T18:07:05.159Z,20.73
2022-08-27T18:12:07.705Z,20.76
2022-08-27T18:17:09.484Z,20.78
2022-08-27T18:22:15.412Z,20.56
2022-08-27T18:27:18.175Z,20.63
2022-08-27T18:32:19.877Z,20.54
2022-08-27T18:37:21.718Z,20.43
2022-08-27T18:42:23.446Z,20.40
2022-08-27T18:47:25.107Z,20.21
2022-08-27T18:52:26.795Z,20.26
2022-08-27T18:57:28.486Z,20.16
2022-08-27T19:02:31.014Z,20.17
2022-08-27T19:07:32.783Z,20.17
2022-08-27T19:12:34.571Z,20.21
2022-08-27T19:17:41.816Z,20.20
2022-08-27T19:22:43.625Z,20.23
2022-08-27T19:27:46.351Z,20.37
2022-08-27T19:32:48.291Z,20.05
2022-08-27T19:37:56.587Z,20.14
2022-08-27T19:42:58.392Z,20.05
2022-08-27T19:48:00.141Z,20.05
2022-08-27T19:53:01.781Z,20.24
2022-08-27T19:58:03.661Z,20.03
2022-08-27T20:03:08.054Z,20.15
2022-08-27T20:08:09.726Z,20.27
2022-08-27T20:13:14.736Z,20.28
2022-08-27T20:18:16.726Z,20.16
2022-08-27T20:23:18.593Z,20.32
2022-08-27T20:28:39.029Z,20.41
2022-08-27T20:33:41.529Z,20.16
2022-08-27T20:38:43.158Z,19.99
2022-08-27T20:43:44.920Z,20.11
2022-08-27T20:48:47.056Z,20.24
2022-08-27T20:53:48.719Z,20.11
2022-08-27T20:59:08.723Z,20.16
2022-08-27T21:04:11.507Z,20.11
2022-08-27T21:09:13.212Z,19.78
2022-08-27T21:14:14.839Z,19.56
2022-08-27T21:19:16.493Z,19.60
2022-08-27T21:24:18.506Z,19.40
2022-08-27T21:29:20.465Z,19.39
2022-08-27T21:34:22.182Z,19.14
2022-08-27T21:39:23.883Z,18.96
2022-08-27T21:44:25.544Z,18.86
2022-08-27T21:49:27.947Z,18.83
2022-08-27T21:54:32.724Z,18.88
2022-08-27T21:59:41.729Z,18.77
2022-08-27T22:04:43.383Z,18.85
2022-08-27T22:09:45.466Z,18.81
2022-08-27T22:14:47.130Z,18.69
2022-08-27T22:19:48.756Z,18.64
2022-08-27T22:24:50.465Z,18.59
2022-08-27T22:29:53.435Z,18.50
2022-08-27T22:34:55.073Z,18.58
2022-08-27T22:39:57.055Z,18.61
2022-08-27T22:44:59.630Z,18.63
2022-08-27T22:50:01.340Z,18.61
2022-08-27T22:55:03.804Z,18.63
2022-08-27T23:00:12.848Z,18.77
2022-08-27T23:05:15.605Z,18.82
2022-08-27T23:10:20.648Z,18.81
2022-08-27T23:15:28.601Z,18.83
2022-08-27T23:20:30.296Z,18.86
2022-08-27T23:25:50.199Z,18.83
2022-08-27T23:30:52.364Z,18.86
2022-08-27T23:35:54.058Z,18.77
2022-08-27T23:40:55.927Z,18.86
2022-08-27T23:45:57.581Z,18.82
2022-08-27T23:50:59.362Z,18.65
2022-08-27T23:56:00.989Z,18.69
